createdAt,value
2023-05-17T00:01:39.400Z,67.18
2023-05-17T00:04:13.425Z,67.84
2023-05-17T00:06:47.318Z,67.91
2023-05-17T00:09:22.254Z,67.77
2023-05-17T00:11:56.053Z,66.90
2023-05-17T00:14:17.269Z,66.57
2023-05-17T00:16:46.050Z,66.97
2023-05-17T00:19:21.068Z,67.34
2023-05-17T00:21:48.001Z,67.28
2023-05-17T00:24:22.013Z,66.78
2023-05-17T00:26:48.175Z,67.24
2023-05-17T00:29:11.071Z,67.44
2023-05-17T00:31:45.600Z,67.04
2023-05-17T00:34:19.510Z,67.32
2023-05-17T00:36:53.977Z,67.33
2023-05-17T00:39:28.220Z,67.23
2023-05-17T00:42:03.110Z,67.07
2023-05-17T00:44:37.324Z,67.32
2023-05-17T00:47:03.937Z,67.55
2023-05-17T00:49:26.971Z,67.88
2023-05-17T00:52:02.018Z,68.43
2023-05-17T00:54:37.543Z,69.14
2023-05-17T00:57:12.479Z,69.33
2023-05-17T00:59:48.311Z,69.48
2023-05-17T01:02:21.780Z,69.67
2023-05-17T01:04:48.588Z,69.64
2023-05-17T01:07:22.614Z,70.03
2023-05-17T01:09:56.759Z,70.30
2023-05-17T01:12:43.332Z,70.76
2023-05-17T01:15:23.201Z,70.89
2023-05-17T01:18:04.608Z,70.65
2023-05-17T01:20:43.427Z,70.90
2023-05-17T01:23:24.688Z,71.26
2023-05-17T01:26:17.379Z,71.54
2023-05-17T01:28:41.209Z,72.02
2023-05-17T01:31:15.358Z,72.06
2023-05-17T01:33:49.186Z,72.14
2023-05-17T01:36:24.628Z,72.26
2023-05-17T01:38:58.668Z,72.57
2023-05-17T01:41:39.988Z,72.30
2023-05-17T01:44:13.256Z,72.16
2023-05-17T01:46:49.096Z,72.34
2023-05-17T01:49:20.143Z,72.44
2023-05-17T01:51:48.479Z,72.25
2023-05-17T01:54:13.419Z,72.54
2023-05-17T01:56:44.837Z,72.83
2023-05-17T01:59:26.382Z,72.91
2023-05-17T02:02:07.387Z,72.87
2023-05-17T02:04:42.957Z,72.80
2023-05-17T02:07:16.047Z,73.05
2023-05-17T02:09:50.208Z,73.27
2023-05-17T02:12:24.633Z,73.16
2023-05-17T02:14:58.567Z,73.17
2023-05-17T02:17:32.389Z,73.25
2023-05-17T02:20:06.686Z,73.14
2023-05-17T02:22:40.472Z,73.24
2023-05-17T02:25:15.932Z,73.54
2023-05-17T02:27:50.046Z,73.58
2023-05-17T02:30:25.889Z,73.31
2023-05-17T02:33:00.373Z,72.90
2023-05-17T02:35:35.953Z,72.82
2023-05-17T02:38:11.002Z,72.70
2023-05-17T02:40:47.742Z,72.36
2023-05-17T02:43:21.151Z,72.13
2023-05-17T02:45:56.012Z,72.04
2023-05-17T02:48:31.050Z,71.75
2023-05-17T02:51:05.132Z,71.61
2023-05-17T02:53:39.166Z,71.85
2023-05-17T02:56:14.084Z,71.82
2023-05-17T02:58:37.016Z,71.89
2023-05-17T03:01:10.646Z,71.76
2023-05-17T03:03:44.931Z,71.47
2023-05-17T03:06:19.569Z,71.45
2023-05-17T03:08:53.551Z,71.48
2023-05-17T03:11:27.099Z,71.34
2023-05-17T03:14:02.238Z,71.15
2023-05-17T03:16:36.349Z,71.00
2023-05-17T03:18:59.816Z,71.05
2023-05-17T03:21:53.681Z,71.13
2023-05-17T03:24:27.587Z,71.21
2023-05-17T03:27:01.743Z,71.50
2023-05-17T03:29:37.509Z,71.75
2023-05-17T03:32:14.383Z,71.74
2023-05-17T03:34:50.281Z,71.68
2023-05-17T03:37:24.648Z,71.99
2023-05-17T03:39:58.658Z,72.30
2023-05-17T03:42:33.195Z,72.54
2023-05-17T03:44:51.966Z,72.72
2023-05-17T03:47:26.605Z,72.97
2023-05-17T03:50:01.341Z,73.25
2023-05-17T03:52:35.771Z,73.34
2023-05-17T03:55:10.593Z,73.57
2023-05-17T03:57:45.927Z,73.75
2023-05-17T04:00:11.803Z,74.00
2023-05-17T04:02:28.726Z,73.93
2023-05-17T04:05:02.702Z,74.16
2023-05-17T04:07:38.068Z,74.08
2023-05-17T04:10:12.461Z,74.45
2023-05-17T04:12:46.597Z,74.72
2023-05-17T04:15:21.990Z,74.78
2023-05-17T04:17:56.734Z,74.81
2023-05-17T04:20:30.620Z,74.92
2023-05-17T04:23:04.327Z,75.09
2023-05-17T04:25:40.056Z,75.30
2023-05-17T04:28:02.491Z,75.33
2023-05-17T04:30:36.742Z,75.24
2023-05-17T04:33:13.497Z,75.39
2023-05-17T04:35:49.833Z,75.35
2023-05-17T04:38:24.830Z,75.46
2023-05-17T04:40:51.831Z,75.68
2023-05-17T04:43:27.853Z,75.67
2023-05-17T04:46:06.974Z,75.76
2023-05-17T04:48:41.872Z,75.86
2023-05-17T04:51:16.320Z,75.93
2023-05-17T04:53:51.389Z,75.94
2023-05-17T04:56:24.996Z,76.02
2023-05-17T04:58:52.960Z,75.96
2023-05-17T05:01:28.061Z,76.10
2023-05-17T05:03:50.234Z,76.02
2023-05-17T05:06:23.699Z,76.05
2023-05-17T05:08:45.498Z,76.08
2023-05-17T05:11:11.987Z,76.40
2023-05-17T05:13:45.791Z,76.30
2023-05-17T05:16:20.431Z,76.44
2023-05-17T05:18:46.850Z,76.52
2023-05-17T05:21:09.940Z,76.69
2023-05-17T05:23:43.477Z,76.68
2023-05-17T05:26:17.607Z,77.03
2023-05-17T05:28:40.776Z,76.92
2023-05-17T05:31:14.495Z,77.16
2023-05-17T05:33:48.691Z,77.43
2023-05-17T05:36:22.308Z,77.21
2023-05-17T05:38:56.356Z,77.40
2023-05-17T05:41:32.497Z,77.43
2023-05-17T05:44:06.167Z,77.49
2023-05-17T05:46:41.564Z,77.59
2023-05-17T05:49:05.039Z,77.69
2023-05-17T05:51:39.383Z,77.74
2023-05-17T05:54:15.592Z,77.75
2023-05-17T05:56:50.048Z,77.77
2023-05-17T05:59:24.503Z,77.64
2023-05-17T06:01:59.185Z,77.76
2023-05-17T06:04:44.671Z,77.91
2023-05-17T06:07:19.607Z,78.03
2023-05-17T06:09:53.242Z,78.10
2023-05-17T06:12:16.188Z,78.17
2023-05-17T06:14:43.271Z,78.17
2023-05-17T06:17:17.374Z,78.17
2023-05-17T06:19:39.945Z,78.16
2023-05-17T06:22:14.356Z,78.09
2023-05-17T06:24:48.265Z,78.14
2023-05-17T06:27:23.083Z,78.10
2023-05-17T06:29:56.573Z,78.16
2023-05-17T06:32:30.829Z,78.31
2023-05-17T06:35:06.232Z,78.47
2023-05-17T06:37:40.171Z,78.29
2023-05-17T06:40:17.132Z,78.30
2023-05-17T06:42:41.363Z,78.45
2023-05-17T06:45:17.606Z,78.50
2023-05-17T06:47:40.746Z,78.51
2023-05-17T06:50:16.356Z,78.55
2023-05-17T06:52:50.187Z,78.44
2023-05-17T06:55:24.312Z,78.49
2023-05-17T06:57:46.033Z,78.58
2023-05-17T07:00:24.133Z,78.34
2023-05-17T07:02:58.147Z,78.36
2023-05-17T07:05:33.265Z,78.54
2023-05-17T07:08:07.292Z,78.65
2023-05-17T07:10:29.726Z,78.49
2023-05-17T07:13:05.786Z,78.46
2023-05-17T07:15:39.944Z,78.53
2023-05-17T07:18:14.843Z,78.62
2023-05-17T07:20:48.765Z,78.69
2023-05-17T07:23:23.712Z,78.59
2023-05-17T07:25:52.307Z,78.53
2023-05-17T07:28:25.562Z,78.64
2023-05-17T07:31:00.902Z,78.80
2023-05-17T07:33:35.121Z,78.80
2023-05-17T07:36:09.780Z,78.90
2023-05-17T07:38:38.555Z,79.04
2023-05-17T07:41:11.074Z,79.11
2023-05-17T07:43:46.423Z,78.95
2023-05-17T07:46:20.328Z,78.98
2023-05-17T07:48:58.230Z,79.03
2023-05-17T07:51:21.852Z,78.95
2023-05-17T07:53:56.587Z,79.04
2023-05-17T07:56:29.967Z,78.85
2023-05-17T07:58:53.975Z,78.76
2023-05-17T08:01:28.175Z,78.91
2023-05-17T08:04:02.171Z,79.05
2023-05-17T08:06:35.957Z,79.00
2023-05-17T08:09:03.638Z,79.10
2023-05-17T08:11:39.245Z,79.23
2023-05-17T08:14:01.092Z,79.40
2023-05-17T08:16:35.832Z,79.65
2023-05-17T08:19:10.795Z,79.65
2023-05-17T08:21:45.513Z,79.57
2023-05-17T08:24:21.246Z,79.58
2023-05-17T08:26:54.177Z,79.67
2023-05-17T08:29:30.604Z,79.57
2023-05-17T08:32:05.032Z,79.53
2023-05-17T08:34:42.362Z,79.72
2023-05-17T08:37:17.660Z,79.84
2023-05-17T08:39:55.503Z,80.00
2023-05-17T08:42:29.999Z,80.06
2023-05-17T08:45:04.918Z,80.19
2023-05-17T08:47:39.007Z,80.19
2023-05-17T08:50:14.468Z,80.24
2023-05-17T08:52:52.661Z,80.27
2023-05-17T08:55:27.527Z,80.44
2023-05-17T08:58:02.505Z,80.31
2023-05-17T09:00:36.104Z,80.28
2023-05-17T09:03:10.270Z,80.47
2023-05-17T09:05:44.511Z,80.39
2023-05-17T09:08:19.072Z,80.57
2023-05-17T09:10:52.726Z,80.68
2023-05-17T09:13:28.719Z,81.02
2023-05-17T09:16:02.856Z,81.01
2023-05-17T09:18:40.096Z,81.08
2023-05-17T09:21:11.194Z,81.13
2023-05-17T09:23:54.262Z,81.34
2023-05-17T09:26:45.688Z,81.56
2023-05-17T09:29:20.617Z,81.62
2023-05-17T09:31:54.597Z,81.82
2023-05-17T09:34:30.718Z,81.96
2023-05-17T09:36:58.554Z,82.26
2023-05-17T09:39:35.398Z,82.58
2023-05-17T09:42:08.519Z,82.67
2023-05-17T09:44:51.885Z,82.38
2023-05-17T09:47:35.172Z,82.64
2023-05-17T09:50:10.280Z,82.83
2023-05-17T09:52:44.992Z,82.81
2023-05-17T09:55:11.071Z,82.91
2023-05-17T09:57:46.390Z,82.78
2023-05-17T10:00:25.750Z,82.85
2023-05-17T10:03:00.617Z,82.83
2023-05-17T10:05:32.429Z,82.92
2023-05-17T10:08:10.147Z,82.92
2023-05-17T10:10:49.999Z,82.81
2023-05-17T10:13:25.973Z,82.76
2023-05-17T10:16:02.076Z,82.86
2023-05-17T10:18:36.938Z,82.81
2023-05-17T10:21:11.876Z,82.77
2023-05-17T10:23:48.208Z,82.86
2023-05-17T10:26:24.001Z,83.00
2023-05-17T10:29:01.776Z,82.93
2023-05-17T10:31:24.584Z,82.76
2023-05-17T10:33:53.677Z,82.61
2023-05-17T10:36:28.032Z,82.69
2023-05-17T10:38:51.540Z,82.86
2023-05-17T10:41:27.741Z,82.92
2023-05-17T10:43:53.010Z,82.80
2023-05-17T10:46:27.286Z,82.74
2023-05-17T10:49:02.943Z,82.62
2023-05-17T10:51:28.558Z,82.57
2023-05-17T10:54:19.633Z,82.61
2023-05-17T10:56:57.465Z,82.77
2023-05-17T10:59:33.537Z,82.90
2023-05-17T11:02:06.321Z,82.93
2023-05-17T11:04:29.649Z,83.05
2023-05-17T11:07:28.308Z,83.27
2023-05-17T11:10:15.431Z,83.39
2023-05-17T11:12:56.457Z,83.24
2023-05-17T11:15:36.768Z,83.21
2023-05-17T11:18:29.189Z,83.27
2023-05-17T11:21:17.319Z,83.24
2023-05-17T11:23:52.507Z,83.40
2023-05-17T11:26:37.678Z,83.24
2023-05-17T11:29:10.002Z,83.11
2023-05-17T11:31:39.011Z,83.20
2023-05-17T11:34:13.032Z,83.39
2023-05-17T11:36:58.585Z,83.50
2023-05-17T11:39:23.136Z,83.52
2023-05-17T11:41:57.920Z,83.46
2023-05-17T11:44:26.360Z,84.06
2023-05-17T11:47:07.900Z,83.86
2023-05-17T11:49:44.101Z,84.21
2023-05-17T11:52:19.860Z,84.19
2023-05-17T11:54:44.556Z,84.09
2023-05-17T11:57:22.694Z,84.06
2023-05-17T11:59:50.290Z,84.16
2023-05-17T12:02:37.700Z,84.17
2023-05-17T12:05:12.107Z,84.27
2023-05-17T12:07:45.641Z,84.42
2023-05-17T12:10:22.950Z,84.54
2023-05-17T12:12:57.886Z,84.38
2023-05-17T12:15:25.803Z,84.35
2023-05-17T12:18:00.593Z,84.52
2023-05-17T12:20:36.458Z,84.45
2023-05-17T12:23:10.679Z,84.22
2023-05-17T12:25:45.280Z,84.25
2023-05-17T12:28:23.782Z,84.39
2023-05-17T12:31:04.217Z,84.44
2023-05-17T12:33:42.490Z,84.58
2023-05-17T12:36:17.121Z,84.64
2023-05-17T12:38:45.980Z,84.72
2023-05-17T12:41:10.723Z,84.69
2023-05-17T12:43:41.001Z,84.85
2023-05-17T12:46:15.390Z,85.05
2023-05-17T12:48:39.526Z,85.23
2023-05-17T12:51:10.051Z,85.17
2023-05-17T12:53:47.564Z,85.20
2023-05-17T12:56:12.564Z,85.46
2023-05-17T12:58:48.024Z,85.60
2023-05-17T13:01:15.653Z,85.54
2023-05-17T13:03:57.120Z,85.70
2023-05-17T13:06:31.742Z,85.67
2023-05-17T13:09:05.164Z,85.61
2023-05-17T13:11:42.382Z,85.39
2023-05-17T13:14:15.953Z,85.09
2023-05-17T13:16:51.346Z,84.78
2023-05-17T13:19:28.775Z,84.81
2023-05-17T13:21:56.065Z,84.90
2023-05-17T13:24:31.501Z,84.94
2023-05-17T13:26:54.668Z,84.85
2023-05-17T13:29:38.001Z,84.58
2023-05-17T13:32:16.311Z,84.63
2023-05-17T13:34:50.477Z,84.70
2023-05-17T13:37:25.370Z,84.39
2023-05-17T13:39:50.567Z,84.46
2023-05-17T13:42:24.559Z,84.33
2023-05-17T13:44:58.789Z,84.59
2023-05-17T13:47:33.397Z,84.66
2023-05-17T13:50:09.403Z,84.54
2023-05-17T13:52:45.110Z,84.40
2023-05-17T13:55:18.844Z,84.33
2023-05-17T13:57:53.053Z,83.67
2023-05-17T14:00:28.459Z,83.55
2023-05-17T14:03:04.807Z,83.87
2023-05-17T14:05:38.791Z,84.23
2023-05-17T14:08:15.162Z,84.25
2023-05-17T14:10:51.947Z,83.98
2023-05-17T14:13:26.001Z,84.35
2023-05-17T14:15:49.503Z,84.40
2023-05-17T14:18:16.723Z,84.34
2023-05-17T14:20:54.458Z,84.50
2023-05-17T14:23:27.944Z,84.16
2023-05-17T14:26:03.907Z,83.78
2023-05-17T14:28:39.269Z,83.99
2023-05-17T14:31:13.768Z,84.85
2023-05-17T14:33:37.325Z,85.19
2023-05-17T14:36:13.916Z,85.03
2023-05-17T14:38:49.439Z,85.01
2023-05-17T14:41:23.244Z,84.49
2023-05-17T14:43:46.465Z,84.74
2023-05-17T14:46:20.781Z,83.90
2023-05-17T14:48:54.652Z,83.50
2023-05-17T14:51:19.854Z,82.61
2023-05-17T14:53:53.857Z,82.47
2023-05-17T14:56:17.947Z,82.61
2023-05-17T14:58:51.462Z,82.37
2023-05-17T15:01:25.547Z,82.39
2023-05-17T15:04:00.143Z,82.07
2023-05-17T15:06:34.981Z,82.42
2023-05-17T15:08:59.273Z,82.95
2023-05-17T15:11:23.188Z,83.04
2023-05-17T15:13:57.506Z,82.58
2023-05-17T15:16:32.565Z,82.69
2023-05-17T15:19:08.824Z,82.84
2023-05-17T15:21:37.076Z,83.26
2023-05-17T15:24:13.584Z,83.65
2023-05-17T15:26:48.596Z,83.24
2023-05-17T15:29:22.528Z,83.23
2023-05-17T15:31:56.553Z,83.31
2023-05-17T15:34:31.886Z,83.39
2023-05-17T15:36:51.431Z,82.80
2023-05-17T15:39:27.291Z,82.35
2023-05-17T15:42:01.000Z,82.74
2023-05-17T15:44:34.838Z,83.22
2023-05-17T15:47:08.333Z,83.06
2023-05-17T15:49:32.175Z,82.94
2023-05-17T15:52:05.862Z,82.67
2023-05-17T15:54:40.128Z,83.13
2023-05-17T15:57:15.974Z,82.91
2023-05-17T15:59:50.248Z,82.42
2023-05-17T16:02:25.662Z,82.37
2023-05-17T16:05:01.754Z,82.42
2023-05-17T16:07:37.729Z,82.58
2023-05-17T16:10:13.041Z,82.69
2023-05-17T16:12:48.576Z,82.81
2023-05-17T16:15:12.348Z,82.67
2023-05-17T16:17:45.797Z,82.40
2023-05-17T16:20:22.949Z,82.05
2023-05-17T16:22:58.699Z,81.96
2023-05-17T16:25:32.511Z,81.76
2023-05-17T16:28:07.267Z,81.84
2023-05-17T16:30:42.009Z,81.56
2023-05-17T16:33:15.766Z,81.31
2023-05-17T16:35:53.310Z,81.34
2023-05-17T16:38:27.973Z,81.24
2023-05-17T16:41:06.376Z,80.74
2023-05-17T16:43:41.144Z,80.12
2023-05-17T16:46:14.266Z,80.05
2023-05-17T16:48:49.841Z,79.79
2023-05-17T16:51:25.493Z,79.69
2023-05-17T16:53:58.901Z,80.00
2023-05-17T16:56:34.922Z,80.06
2023-05-17T16:59:09.801Z,79.57
2023-05-17T17:01:37.354Z,79.36
2023-05-17T17:04:12.826Z,79.18
2023-05-17T17:06:39.697Z,78.81
2023-05-17T17:09:13.987Z,77.52
2023-05-17T17:11:48.213Z,78.32
2023-05-17T17:14:23.199Z,78.52
2023-05-17T17:16:56.811Z,78.09
2023-05-17T17:19:32.527Z,77.43
2023-05-17T17:22:07.804Z,75.95
2023-05-17T17:24:28.426Z,76.00
2023-05-17T17:26:54.221Z,76.10
2023-05-17T17:29:20.142Z,75.98
2023-05-17T17:31:53.864Z,75.68
2023-05-17T17:34:28.409Z,75.91
2023-05-17T17:37:03.942Z,75.76
2023-05-17T17:39:37.321Z,75.18
2023-05-17T17:42:12.374Z,75.66
2023-05-17T17:44:41.607Z,75.54
2023-05-17T17:47:15.975Z,75.24
2023-05-17T17:49:49.285Z,75.43
2023-05-17T17:52:23.678Z,75.85
2023-05-17T17:54:47.950Z,76.31
2023-05-17T17:57:23.129Z,75.80
2023-05-17T17:59:45.430Z,75.79
2023-05-17T18:02:07.498Z,75.50
2023-05-17T18:04:42.560Z,74.67
2023-05-17T18:07:17.562Z,74.15
2023-05-17T18:09:54.793Z,74.10
2023-05-17T18:12:29.650Z,74.34
2023-05-17T18:15:04.077Z,74.97
2023-05-17T18:17:38.078Z,75.04
2023-05-17T18:20:14.144Z,74.83
2023-05-17T18:22:48.461Z,74.76
2023-05-17T18:25:22.579Z,74.02
2023-05-17T18:27:57.349Z,74.02
2023-05-17T18:30:31.816Z,74.29
2023-05-17T18:33:08.171Z,73.61
2023-05-17T18:35:42.449Z,73.25
2023-05-17T18:38:16.315Z,73.68
2023-05-17T18:40:44.147Z,73.40
2023-05-17T18:43:12.071Z,73.14
2023-05-17T18:45:45.904Z,72.35
2023-05-17T18:48:23.178Z,73.00
2023-05-17T18:50:58.689Z,72.51
2023-05-17T18:53:32.630Z,73.04
2023-05-17T18:55:55.607Z,72.93
2023-05-17T18:58:31.005Z,72.59
2023-05-17T19:01:06.047Z,72.27
2023-05-17T19:03:27.934Z,72.48
2023-05-17T19:05:54.657Z,72.84
2023-05-17T19:08:27.503Z,71.74
2023-05-17T19:11:04.702Z,72.20
2023-05-17T19:13:28.309Z,71.80
2023-05-17T19:15:54.210Z,71.99
2023-05-17T19:18:19.054Z,72.36
2023-05-17T19:20:54.078Z,72.58
2023-05-17T19:23:29.391Z,71.88
2023-05-17T19:25:50.282Z,71.64
2023-05-17T19:28:19.179Z,71.67
2023-05-17T19:30:53.597Z,72.07
2023-05-17T19:33:29.421Z,71.99
2023-05-17T19:36:03.733Z,71.85
2023-05-17T19:38:29.778Z,72.27
2023-05-17T19:41:02.743Z,72.57
2023-05-17T19:43:38.133Z,72.57
2023-05-17T19:45:59.742Z,71.98
2023-05-17T19:48:34.031Z,71.53
2023-05-17T19:50:58.099Z,71.16
2023-05-17T19:53:21.257Z,71.86
2023-05-17T19:55:55.740Z,72.24
2023-05-17T19:58:30.667Z,71.98
2023-05-17T20:00:53.092Z,71.75
2023-05-17T20:03:28.376Z,71.76
2023-05-17T20:06:01.792Z,71.47
2023-05-17T20:08:36.180Z,71.81
2023-05-17T20:11:10.584Z,71.94
2023-05-17T20:13:35.230Z,71.72
2023-05-17T20:16:13.773Z,71.76
2023-05-17T20:18:48.933Z,72.57
2023-05-17T20:21:13.949Z,73.11
2023-05-17T20:23:37.250Z,72.76
2023-05-17T20:26:02.794Z,72.45
2023-05-17T20:28:41.208Z,72.67
2023-05-17T20:31:04.371Z,72.35
2023-05-17T20:33:37.759Z,72.73
2023-05-17T20:36:12.878Z,72.49
2023-05-17T20:38:47.023Z,72.27
2023-05-17T20:41:20.812Z,71.46
2023-05-17T20:43:51.998Z,71.82
2023-05-17T20:46:26.550Z,71.60
2023-05-17T20:49:00.310Z,71.62
2023-05-17T20:51:23.550Z,70.75
2023-05-17T20:53:58.327Z,70.47
2023-05-17T20:56:33.118Z,70.60
2023-05-17T20:58:55.538Z,69.71
2023-05-17T21:01:30.326Z,70.40
2023-05-17T21:04:04.691Z,70.12
2023-05-17T21:06:39.770Z,70.70
2023-05-17T21:09:14.025Z,70.63
2023-05-17T21:11:48.865Z,71.40
2023-05-17T21:14:23.955Z,71.04
2023-05-17T21:16:59.162Z,70.13
2023-05-17T21:19:33.171Z,69.99
2023-05-17T21:22:08.570Z,70.53
2023-05-17T21:24:23.146Z,70.06
2023-05-17T21:26:45.988Z,69.88
2023-05-17T21:29:20.509Z,69.72
2023-05-17T21:31:54.877Z,69.28
2023-05-17T21:34:18.269Z,70.06
2023-05-17T21:36:40.521Z,69.59
2023-05-17T21:39:14.458Z,69.22
2023-05-17T21:41:37.860Z,69.84
2023-05-17T21:44:01.215Z,69.76
2023-05-17T21:46:37.372Z,70.31
2023-05-17T21:49:12.393Z,70.14
2023-05-17T21:51:35.501Z,70.48
2023-05-17T21:54:08.938Z,70.70
2023-05-17T21:56:33.380Z,70.60
2023-05-17T21:59:07.495Z,70.40
2023-05-17T22:01:41.318Z,70.61
2023-05-17T22:04:09.599Z,70.57
2023-05-17T22:06:35.591Z,70.77
2023-05-17T22:09:10.609Z,71.34
2023-05-17T22:11:34.307Z,71.37
2023-05-17T22:13:57.620Z,71.69
2023-05-17T22:16:29.166Z,71.69
2023-05-17T22:18:46.565Z,71.05
2023-05-17T22:21:23.779Z,71.33
2023-05-17T22:23:58.199Z,71.55
2023-05-17T22:26:25.107Z,71.69
2023-05-17T22:29:00.616Z,71.89
2023-05-17T22:31:28.901Z,71.63
2023-05-17T22:34:05.561Z,71.56
2023-05-17T22:36:39.383Z,71.78
2023-05-17T22:39:08.219Z,71.97
2023-05-17T22:41:42.484Z,72.22
2023-05-17T22:44:04.971Z,72.40
2023-05-17T22:46:34.457Z,72.31
2023-05-17T22:49:08.444Z,72.16
2023-05-17T22:51:42.747Z,71.57
2023-05-17T22:54:16.818Z,71.23
2023-05-17T22:56:50.845Z,71.95
2023-05-17T22:59:27.513Z,71.39
2023-05-17T23:02:01.783Z,70.91
2023-05-17T23:04:35.888Z,71.72
2023-05-17T23:07:10.902Z,71.27
2023-05-17T23:09:44.910Z,71.35
2023-05-17T23:12:18.498Z,71.40
2023-05-17T23:14:52.632Z,71.09
2023-05-17T23:17:27.905Z,70.73
2023-05-17T23:20:10.702Z,70.67
2023-05-17T23:22:35.062Z,70.19
2023-05-17T23:25:09.468Z,70.39
2023-05-17T23:27:45.643Z,70.93
2023-05-17T23:30:20.445Z,71.02
2023-05-17T23:32:56.315Z,70.53
2023-05-17T23:35:19.046Z,71.10
2023-05-17T23:37:53.593Z,71.34
2023-05-17T23:40:27.795Z,71.50
2023-05-17T23:42:50.676Z,71.50
2023-05-17T23:45:25.533Z,71.26
2023-05-17T23:48:01.319Z,71.66
2023-05-17T23:50:27.388Z,71.02
2023-05-17T23:53:04.478Z,70.75
2023-05-17T23:55:39.549Z,71.69
2023-05-17T23:58:06.822Z,71.97
